Time;durP1;ratioP1;P1;durP2;ratioP2;P2;SDS_P1;SDS_P2;PMS_P1;PMS_P2;Temp;Humidity;BMP_temperature;BMP_pressure;BME280_temperature;BME280_humidity;BME280_pressure;Samples;Min_cycle;Max_cycle;Signal;HPM_P1;HPM_P2
2022/06/03 04:03:32;;;;;;;6.40;5.80;;;12.20;99.90;;;;;;5860008;23;20180;-78
2022/06/03 04:06:44;;;;;;;6.37;5.70;;;12.20;99.90;;;;;;4949615;28;20266;-79
2022/06/03 04:09:51;;;;;;;7.10;6.40;;;12.30;99.90;;;;;;4962125;28;20261;-78
2022/06/03 04:12:52;;;;;;;6.73;6.00;;;12.40;99.90;;;;;;4946136;28;20210;-78
2022/06/03 04:16:08;;;;;;;8.03;6.10;;;12.50;99.90;;;;;;4970868;28;20268;-78
2022/06/03 04:19:07;;;;;;;6.40;5.60;;;12.60;99.90;;;;;;4973903;28;20219;-79
2022/06/03 04:22:05;;;;;;;7.20;6.20;;;12.60;99.90;;;;;;4973600;28;20202;-76
2022/06/03 04:25:09;;;;;;;7.37;6.60;;;12.70;99.90;;;;;;4958447;28;20219;-77
2022/06/03 04:28:09;;;;;;;7.90;6.77;;;12.80;99.90;;;;;;4973313;28;20206;-76
2022/06/03 04:31:18;;;;;;;7.50;6.67;;;12.90;99.90;;;;;;4938132;28;20250;-78
2022/06/03 04:34:26;;;;;;;9.07;7.23;;;13.00;99.90;;;;;;4963717;28;20665;-78
2022/06/03 04:37:33;;;;;;;8.10;7.17;;;13.10;99.90;;;;;;4967028;28;20734;-76
2022/06/03 04:40:40;;;;;;;8.43;7.53;;;13.30;99.90;;;;;;4931482;29;20224;-78
2022/06/03 04:43:55;;;;;;;8.57;7.67;;;13.40;99.90;;;;;;4971520;28;20242;-78
2022/06/03 04:47:17;;;;;;;8.27;7.47;;;13.40;99.90;;;;;;4949794;28;20210;-78
2022/06/03 04:50:25;;;;;;;9.07;7.27;;;13.60;99.90;;;;;;4975016;28;20215;-76
2022/06/03 04:53:33;;;;;;;9.03;8.00;;;13.60;99.90;;;;;;4967683;28;20594;-75
2022/06/03 04:56:52;;;;;;;7.80;7.00;;;13.60;99.90;;;;;;4962337;28;20211;-76
2022/06/03 04:59:53;;;;;;;8.73;7.50;;;13.70;99.90;;;;;;4959346;28;20259;-78
2022/06/03 05:03:12;;;;;;;9.53;8.33;;;13.80;99.90;;;;;;4947751;28;20211;-78
2022/06/03 05:06:25;;;;;;;11.03;7.57;;;13.90;99.90;;;;;;4953056;28;20672;-77
2022/06/03 05:09:29;;;;;;;9.73;7.60;;;14.00;99.90;;;;;;4951550;28;20246;-78
2022/06/03 05:12:28;;;;;;;9.10;8.20;;;14.10;99.90;;;;;;4932255;28;20242;-78
2022/06/03 05:15:41;;;;;;;10.70;8.33;;;14.10;99.90;;;;;;4953609;28;20804;-78
2022/06/03 05:18:43;;;;;;;9.97;8.27;;;14.20;99.90;;;;;;4923896;28;20297;-77
2022/06/03 05:21:51;;;;;;;8.77;7.60;;;14.40;99.90;;;;;;4885770;29;20671;-75
2022/06/03 05:24:49;;;;;;;10.27;7.60;;;14.60;99.90;;;;;;4953199;28;20239;-76
2022/06/03 05:27:47;;;;;;;8.40;7.43;;;14.90;99.90;;;;;;4954280;28;20223;-78
2022/06/03 05:30:56;;;;;;;8.43;7.10;;;15.10;99.90;;;;;;4939436;28;20215;-78
2022/06/03 05:33:46;;;;;;;9.93;7.87;;;15.20;99.90;;;;;;4937212;28;20218;-78
2022/06/03 05:36:43;;;;;;;9.27;7.83;;;15.30;99.90;;;;;;4951198;28;20306;-78
2022/06/03 05:39:48;;;;;;;9.30;7.17;;;15.40;99.90;;;;;;4947677;28;20286;-77
2022/06/03 05:42:42;;;;;;;9.13;7.80;;;15.60;99.90;;;;;;4921341;28;20211;-77
2022/06/03 05:45:43;;;;;;;7.83;7.03;;;15.80;99.90;;;;;;4955539;28;20278;-80
2022/06/03 05:48:17;;;;;;;9.83;7.10;;;16.10;99.90;;;;;;4936035;28;20214;-77
2022/06/03 05:50:51;;;;;;;8.20;6.30;;;16.70;99.90;;;;;;4951417;28;20294;-78
2022/06/03 05:53:38;;;;;;;7.07;6.07;;;17.50;99.90;;;;;;4952961;28;20238;-78
2022/06/03 05:56:33;;;;;;;6.87;5.80;;;18.70;99.90;;;;;;4952912;28;20215;-77
2022/06/03 05:59:11;;;;;;;8.63;4.70;;;20.30;99.90;;;;;;4952683;28;20271;-78
2022/06/03 06:01:57;;;;;;;5.20;4.70;;;21.30;99.90;;;;;;4953877;28;20250;-75
